Time;durP1;ratioP1;P1;durP2;ratioP2;P2;SDS_P1;SDS_P2;PMS_P1;PMS_P2;Temp;Humidity;BMP_temperature;BMP_pressure;BME280_temperature;BME280_humidity;BME280_pressure;Samples;Min_cycle;Max_cycle;Signal;HPM_P1;HPM_P2
2022/05/26 06:05:26;;;;;;;;;1.00;1.00;;;;;17.56;100.00;100764.56;6389682;22;45807;-88
2022/05/26 06:07:52;;;;;;;;;0.00;0.00;;;;;17.61;100.00;100762.91;6401608;22;45386;-86
2022/05/26 06:10:18;;;;;;;;;2.00;0.00;;;;;17.67;100.00;100767.41;6369715;22;45350;-87
2022/05/26 06:12:43;;;;;;;;;0.00;0.00;;;;;17.78;100.00;100772.91;6400101;22;45331;-86
2022/05/26 06:15:09;;;;;;;;;0.00;0.00;;;;;17.84;100.00;100773.88;6398200;22;45653;-86
2022/05/26 06:17:35;;;;;;;;;0.00;0.00;;;;;17.86;100.00;100777.44;6399198;22;45586;-87
2022/05/26 06:20:01;;;;;;;;;0.00;0.00;;;;;17.82;100.00;100770.31;6398044;22;45326;-86
2022/05/26 06:22:27;;;;;;;;;2.00;0.00;;;;;17.79;100.00;100778.22;6368485;22;45366;-86
2022/05/26 06:24:52;;;;;;;;;0.00;0.00;;;;;17.82;100.00;100782.69;6397579;22;45226;-87
2022/05/26 06:30:09;;;;;;;;;0.00;0.00;;;;;18.01;100.00;100785.63;6397482;22;45381;-88
2022/05/26 06:38:12;;;;;;;;;1.00;1.00;;;;;18.26;100.00;100786.94;6396337;22;45399;-86
2022/05/26 06:40:37;;;;;;;;;1.33;1.00;;;;;18.31;100.00;100793.19;6367484;22;45397;-87
2022/05/26 06:43:03;;;;;;;;;3.00;1.00;;;;;18.45;100.00;100800.44;6367837;22;45379;-87
2022/05/26 06:45:28;;;;;;;;;1.00;1.00;;;;;18.57;100.00;100801.50;6368110;22;45390;-85
2022/05/26 06:47:53;;;;;;;;;0.00;0.00;;;;;18.62;100.00;100795.38;6397339;22;46036;-86
2022/05/26 06:50:19;;;;;;;;;1.00;1.00;;;;;18.62;100.00;100794.47;6397719;22;45375;-87
2022/05/26 06:52:44;;;;;;;;;0.00;0.00;;;;;18.60;100.00;100809.50;6368588;22;45339;-88
2022/05/26 06:55:11;;;;;;;;;2.00;0.00;;;;;18.60;100.00;100820.16;6397452;22;45350;-87
2022/05/26 06:57:36;;;;;;;;;0.00;0.00;;;;;18.60;100.00;100826.34;6398355;22;46590;-87
2022/05/26 07:00:04;;;;;;;;;1.00;0.00;;;;;18.60;100.00;100821.03;6396982;22;45303;-87
2022/05/26 07:02:29;;;;;;;;;0.00;0.00;;;;;18.53;100.00;100828.03;6397840;22;45344;-87
2022/05/26 07:04:55;;;;;;;;;0.00;0.00;;;;;18.56;100.00;100823.63;6368165;22;45470;-87
2022/05/26 07:07:20;;;;;;;;;0.00;0.00;;;;;18.61;100.00;100827.22;6396320;22;50856;-87
2022/05/26 07:09:45;;;;;;;;;1.00;0.00;;;;;18.62;100.00;100821.94;6366730;22;45654;-87
2022/05/26 07:12:12;;;;;;;;;5.00;5.00;;;;;18.64;100.00;100822.84;6368544;22;45281;-87
2022/05/26 07:14:40;;;;;;;;;1.33;0.67;;;;;18.63;100.00;100826.38;6396902;22;45299;-87
2022/05/26 07:17:06;;;;;;;;;0.00;0.00;;;;;18.60;100.00;100820.16;6368135;22;47266;-88
2022/05/26 07:19:33;;;;;;;;;0.00;0.00;;;;;18.57;100.00;100834.28;6396118;22;45315;-87
2022/05/26 07:21:59;;;;;;;;;1.00;1.00;;;;;18.63;100.00;100837.00;6367654;22;45311;-87
2022/05/26 07:24:24;;;;;;;;;0.00;0.00;;;;;18.95;100.00;100838.31;6367293;22;45618;-89
2022/05/26 07:26:50;;;;;;;;;1.33;0.67;;;;;19.28;100.00;100833.38;6367609;22;45453;-88
2022/05/26 07:29:17;;;;;;;;;2.67;1.00;;;;;19.52;100.00;100828.28;6368075;22;45277;-89
2022/05/26 07:31:43;;;;;;;;;0.33;0.00;;;;;19.60;100.00;100831.91;6368602;22;45372;-89
2022/05/26 07:34:11;;;;;;;;;0.33;0.33;;;;;19.53;100.00;100830.06;6396465;22;45327;-89
2022/05/26 07:42:11;;;;;;;;;1.67;1.00;;;;;19.20;100.00;100869.63;6398042;22;45326;-88
2022/05/26 07:44:40;;;;;;;;;2.67;2.67;;;;;19.06;100.00;100870.34;6391448;22;45651;-88
2022/05/26 07:47:07;;;;;;;;;3.00;3.00;;;;;19.00;100.00;100883.56;6367864;22;47229;-89
2022/05/26 07:49:34;;;;;;;;;1.00;1.00;;;;;19.06;100.00;100888.97;6367955;22;45340;-89
2022/05/26 07:52:01;;;;;;;;;2.00;1.00;;;;;19.17;100.00;100885.56;6397520;22;45454;-89
2022/05/26 07:54:28;;;;;;;;;4.00;3.00;;;;;19.23;100.00;100882.06;6397046;22;45262;-90
2022/05/26 07:56:53;;;;;;;;;3.00;1.33;;;;;19.35;100.00;100889.34;6397719;22;45383;-90
2022/05/26 07:59:18;;;;;;;;;3.00;1.33;;;;;19.40;100.00;100887.63;6396769;22;45443;-90
2022/05/26 08:01:44;;;;;;;;;2.33;1.33;;;;;19.37;100.00;100899.13;6397419;22;45313;-90
2022/05/26 08:04:09;;;;;;;;;2.67;2.67;;;;;19.36;100.00;100899.09;6367017;22;45432;-88
2022/05/26 08:06:36;;;;;;;;;1.00;1.00;;;;;19.30;100.00;100887.50;6367770;22;47186;-90
2022/05/26 08:09:01;;;;;;;;;4.00;2.00;;;;;19.30;100.00;100895.47;6368748;22;45660;-90
2022/05/26 08:11:26;;;;;;;;;2.33;1.00;;;;;19.37;100.00;100907.09;6368293;22;45415;-90
2022/05/26 08:13:52;;;;;;;;;0.33;0.00;;;;;19.48;100.00;100906.31;6396791;22;45420;-90
2022/05/26 08:16:17;;;;;;;;;2.33;2.33;;;;;19.54;100.00;100907.28;6397012;22;45422;-90
2022/05/26 08:18:42;;;;;;;;;2.00;1.00;;;;;19.54;100.00;100906.38;6367486;22;45551;-90
2022/05/26 08:21:14;;;;;;;;;2.00;2.00;;;;;19.58;100.00;100907.31;6397127;22;45299;-89
2022/05/26 08:23:40;;;;;;;;;5.00;2.00;;;;;19.58;100.00;100905.56;6397638;22;45182;-89
2022/05/26 08:26:06;;;;;;;;;1.00;1.00;;;;;19.70;100.00;100907.44;6367413;22;47419;-90
2022/05/26 08:28:31;;;;;;;;;1.33;1.33;;;;;19.91;100.00;100907.63;6391733;22;45377;-90
2022/05/26 08:30:59;;;;;;;;;6.00;2.00;;;;;20.15;100.00;100906.97;6397029;22;45323;-90
2022/05/26 08:33:26;;;;;;;;;2.00;2.00;;;;;20.39;100.00;100908.03;6366992;22;45240;-91
2022/05/26 08:36:09;;;;;;;;;3.67;3.00;;;;;20.63;100.00;100901.09;6367251;22;48444;-90
2022/05/26 08:38:35;;;;;;;;;2.00;2.00;;;;;20.83;100.00;100907.41;6397282;22;45309;-91
2022/05/26 08:41:02;;;;;;;;;3.33;3.00;;;;;21.07;100.00;100919.09;6397067;22;45303;-91
2022/05/26 08:43:52;;;;;;;;;4.00;3.00;;;;;21.31;100.00;100912.97;6398009;22;45347;-93
2022/05/26 08:46:19;;;;;;;;;1.00;1.00;;;;;21.44;100.00;100908.53;6373237;22;46029;-90
2022/05/26 08:48:50;;;;;;;;;2.00;2.00;;;;;21.53;100.00;100901.44;6378001;22;45312;-89
2022/05/26 08:51:26;;;;;;;;;2.33;2.00;;;;;21.51;100.00;100906.81;6405953;22;45398;-93
2022/05/26 08:53:53;;;;;;;;;1.00;1.00;;;;;21.39;100.00;100910.31;6414190;22;45162;-90
2022/05/26 08:56:24;;;;;;;;;1.33;1.33;;;;;21.28;100.00;100923.66;6421782;22;45232;-92
2022/05/26 08:59:01;;;;;;;;;2.00;2.00;;;;;21.19;100.00;100936.94;6413780;22;45366;-91
2022/05/26 09:01:31;;;;;;;;;1.00;1.00;;;;;21.24;100.00;100944.97;6368602;22;45390;-91
2022/05/26 09:03:57;;;;;;;;;2.33;1.67;;;;;21.29;100.00;100932.53;6397588;22;45247;-91
2022/05/26 09:06:23;;;;;;;;;2.00;2.00;;;;;21.33;100.00;100934.34;6366971;22;48061;-92
2022/05/26 09:14:32;;;;;;;;;2.33;2.00;;;;;21.32;100.00;100956.56;6400819;22;45505;-92
2022/05/26 09:17:05;;;;;;;;;2.00;2.00;;;;;21.39;100.00;100958.38;6376094;22;47240;-92
2022/05/26 09:19:53;;;;;;;;;4.33;1.67;;;;;21.57;100.00;100956.63;6374490;22;45321;-91
2022/05/26 09:22:44;;;;;;;;;2.00;1.33;;;;;21.90;100.00;100955.88;6374861;22;45564;-92
2022/05/26 09:25:13;;;;;;;;;3.00;3.00;;;;;22.04;100.00;100971.91;6404658;22;45331;-91
2022/05/26 09:27:39;;;;;;;;;1.67;1.67;;;;;22.07;100.00;100977.25;6403562;22;45286;-91
2022/05/26 09:30:26;;;;;;;;;3.67;2.00;;;;;22.02;100.00;100995.97;6371068;22;45220;-92
2022/05/26 09:32:53;;;;;;;;;1.00;0.00;;;;;21.95;100.00;100995.06;6369907;22;45321;-91
2022/05/26 09:35:18;;;;;;;;;3.00;3.00;;;;;21.92;100.00;100997.72;6374444;22;45387;-91
2022/05/26 09:37:49;;;;;;;;;2.00;1.00;;;;;21.97;100.00;100995.06;6402939;22;46605;-91
2022/05/26 09:40:36;;;;;;;;;2.00;2.00;;;;;22.03;100.00;101005.78;6405014;22;45212;-89
2022/05/26 09:43:22;;;;;;;;;1.67;1.33;;;;;22.16;100.00;101009.31;6409599;22;45273;-91
2022/05/26 09:45:51;;;;;;;;;3.00;2.00;;;;;22.81;100.00;101001.31;6376320;22;45597;-92
2022/05/26 09:48:24;;;;;;;;;2.33;2.33;;;;;23.75;100.00;100988.50;6399935;22;46029;-91
2022/05/26 09:51:08;;;;;;;;;2.00;2.00;;;;;24.55;100.00;100993.31;6371370;22;45395;-91
2022/05/26 09:53:41;;;;;;;;;0.67;0.00;;;;;24.81;100.00;101002.00;6399952;22;45370;-91
2022/05/26 09:56:10;;;;;;;;;4.33;1.00;;;;;24.68;100.00;101030.75;6371623;22;45289;-92
2022/05/26 09:58:41;;;;;;;;;2.00;1.00;;;;;24.47;100.00;101045.22;6370131;22;46929;-91
2022/05/26 10:01:30;;;;;;;;;1.67;1.00;;;;;24.18;100.00;101063.28;6371819;22;45262;-96
2022/05/26 10:04:10;;;;;;;;;1.33;1.00;;;;;23.99;100.00;101074.16;6343138;22;69714;-89
2022/05/26 10:06:41;;;;;;;;;3.67;1.00;;;;;24.41;100.00;101046.16;6368430;22;45404;-91
2022/05/26 10:09:30;;;;;;;;;3.00;1.00;;;;;24.42;100.00;101059.59;6398728;22;45307;-91
2022/05/26 10:12:02;;;;;;;;;1.00;1.00;;;;;24.91;100.00;101053.78;6375147;22;45397;-94
2022/05/26 10:14:38;;;;;;;;;2.00;2.00;;;;;25.41;100.00;101076.56;6400239;22;45415;-95
2022/05/26 10:17:10;;;;;;;;;2.00;2.00;;;;;25.96;100.00;101086.66;6372440;22;45308;-92
2022/05/26 10:19:47;;;;;;;;;1.00;1.00;;;;;26.29;100.00;101116.66;6410851;22;45343;-95
2022/05/26 10:22:31;;;;;;;;;2.00;2.00;;;;;27.51;100.00;101089.47;6377202;22;45319;-92
2022/05/26 10:25:08;;;;;;;;;2.00;2.00;;;;;30.39;100.00;101036.03;6399360;22;45346;-91
2022/05/26 10:27:50;;;;;;;;;2.00;1.00;;;;;31.54;100.00;101229.03;6399747;22;45420;-93
2022/05/26 10:30:30;;;;;;;;;1.00;1.00;;;;;30.88;100.00;101325.16;6407374;22;45349;-92
2022/05/26 10:33:23;;;;;;;;;1.00;1.00;;;;;29.86;100.00;101350.59;6405944;22;45305;-92
2022/05/26 10:36:07;;;;;;;;;1.33;1.00;;;;;28.86;100.00;101380.84;6381030;22;45276;-96
2022/05/26 10:38:48;;;;;;;;;1.00;1.00;;;;;28.34;100.00;101344.09;6384085;22;45242;-96
2022/05/26 10:41:40;;;;;;;;;1.00;1.00;;;;;31.49;100.00;101192.16;6407966;22;45336;-96
2022/05/26 10:44:32;;;;;;;;;0.33;0.33;;;;;31.91;100.00;101426.75;6402268;22;45527;-95
2022/05/26 10:47:21;;;;;;;;;0.00;0.00;;;;;31.56;99.56;101799.56;6400993;22;45246;-93
2022/05/26 10:49:58;;;;;;;;;2.00;1.00;;;;;32.41;95.61;101970.13;6399096;22;45297;-96
2022/05/26 10:52:36;;;;;;;;;3.33;0.00;;;;;31.63;92.44;102032.72;6397417;22;46164;-93
2022/05/26 10:55:14;;;;;;;;;0.00;0.00;;;;;30.70;92.38;102031.00;6402019;22;45645;-96
2022/05/26 10:57:53;;;;;;;;;0.00;0.00;;;;;29.75;91.87;102008.25;6410976;22;45265;-96
2022/05/26 11:00:23;;;;;;;;;2.00;1.00;;;;;28.82;91.74;101988.75;6416285;22;45297;-96
2022/05/26 11:02:54;;;;;;;;;1.67;1.67;;;;;27.91;92.09;101977.00;6406163;22;45361;-96
2022/05/26 11:05:41;;;;;;;;;0.33;0.33;;;;;27.14;92.79;101904.72;6405878;22;45441;-93
2022/05/26 11:08:15;;;;;;;;;1.00;1.00;;;;;26.43;94.26;101826.03;6398498;22;45329;-89
2022/05/26 11:10:48;;;;;;;;;2.00;0.67;;;;;25.95;95.14;101773.31;6398506;22;45301;-91
2022/05/26 11:13:36;;;;;;;;;4.00;2.67;;;;;25.72;96.37;101682.84;6398082;22;45428;-92
2022/05/26 11:19:34;;;;;;;;;2.00;2.00;;;;;26.84;98.77;101608.63;6399433;22;45437;-93
2022/05/26 11:22:01;;;;;;;;;0.00;0.00;;;;;27.10;98.47;101647.00;6369877;22;45400;-92
2022/05/26 11:24:28;;;;;;;;;2.67;0.00;;;;;28.80;100.00;101553.84;6404108;22;46224;-92
2022/05/26 11:27:15;;;;;;;;;0.67;0.67;;;;;32.82;100.00;101662.75;6374272;22;45300;-90
2022/05/26 11:29:46;;;;;;;;;0.00;0.00;;;;;34.79;98.21;101882.50;6368947;22;45439;-93
2022/05/26 11:38:05;;;;;;;;;0.00;0.00;;;;;33.49;88.64;102062.19;6397835;22;45206;-94
2022/05/26 11:40:43;;;;;;;;;0.00;0.00;;;;;35.69;91.25;102040.84;6397296;22;45456;-93
2022/05/26 11:43:09;;;;;;;;;2.33;1.00;;;;;37.89;88.99;102086.63;6367646;22;45561;-94
2022/05/26 11:45:47;;;;;;;;;0.00;0.00;;;;;39.86;84.57;102147.59;6368950;22;47913;-94
2022/05/26 11:48:31;;;;;;;;;0.00;0.00;;;;;42.02;81.49;102171.94;6398367;22;45158;-92
2022/05/26 11:51:01;;;;;;;;;3.67;1.00;;;;;43.93;77.45;102198.19;6369289;22;45530;-91
2022/05/26 11:53:48;;;;;;;;;0.00;0.00;;;;;45.15;69.13;102233.09;6396955;22;45762;-89
2022/05/26 11:56:29;;;;;;;;;0.00;0.00;;;;;46.09;65.78;102246.75;6395538;22;45551;-91
2022/05/26 11:59:21;;;;;;;;;0.00;0.00;;;;;47.47;64.33;102246.00;6396136;22;45356;-90
2022/05/26 12:01:58;;;;;;;;;0.00;0.00;;;;;48.43;59.46;102260.34;6397441;22;45617;-91
2022/05/26 12:04:28;;;;;;;;;0.00;0.00;;;;;48.08;55.10;102265.47;6396719;22;45319;-92
2022/05/26 12:07:00;;;;;;;;;0.33;0.33;;;;;46.37;54.55;102263.81;6397113;22;45954;-92
2022/05/26 12:09:34;;;;;;;;;0.00;0.00;;;;;46.13;54.84;102262.13;6396146;22;45304;-92
2022/05/26 12:12:08;;;;;;;;;0.00;0.00;;;;;45.31;54.08;102256.75;6397445;22;45277;-91
2022/05/26 12:14:52;;;;;;;;;0.67;0.00;;;;;45.54;53.07;102265.97;6368421;22;45264;-91
2022/05/26 12:17:29;;;;;;;;;0.67;0.00;;;;;43.79;51.64;102263.69;6407192;22;46409;-96
2022/05/26 12:20:15;;;;;;;;;0.00;0.00;;;;;42.03;52.38;102259.19;6379524;22;45241;-92
2022/05/26 12:22:47;;;;;;;;;0.00;0.00;;;;;40.11;53.19;102265.22;6375180;22;45395;-93
2022/05/26 12:25:29;;;;;;;;;0.00;0.00;;;;;40.71;55.78;102260.94;6376769;22;45455;-95
2022/05/26 12:27:59;;;;;;;;;1.67;0.00;;;;;41.89;55.46;102255.44;6403281;22;46502;-95
2022/05/26 12:30:33;;;;;;;;;0.67;0.00;;;;;41.09;54.27;102265.94;6376064;22;45309;-96
2022/05/26 12:33:17;;;;;;;;;0.00;0.00;;;;;40.02;55.34;102248.38;6362855;22;44720;-96
2022/05/26 12:36:10;;;;;;;;;1.00;1.00;;;;;39.65;56.27;102263.19;6337863;22;45246;-96
2022/05/26 12:39:14;;;;;;;;;17.33;16.67;;;;;38.30;55.60;102250.88;6342039;22;45515;-96
2022/05/26 12:41:51;;;;;;;;;1.67;1.67;;;;;36.54;56.67;102247.78;6335613;22;45331;-96
2022/05/26 12:44:42;;;;;;;;;1.00;1.00;;;;;34.95;57.95;102241.88;6336567;22;45400;-96
2022/05/26 12:47:46;;;;;;;;;0.67;0.67;;;;;33.63;59.28;102235.06;6337188;22;45246;-95
2022/05/26 12:50:20;;;;;;;;;1.33;1.33;;;;;32.43;60.44;102221.81;6332906;22;45308;-90
2022/05/26 12:52:54;;;;;;;;;2.00;2.00;;;;;31.67;61.61;102208.97;6330732;22;45370;-91
2022/05/26 12:55:32;;;;;;;;;17.67;16.33;;;;;31.15;63.29;102186.50;6333757;22;45432;-93
2022/05/26 12:58:12;;;;;;;;;11.00;11.00;;;;;30.99;63.75;102179.53;6333904;22;45256;-94
2022/05/26 13:00:56;;;;;;;;;3.33;2.00;;;;;31.46;64.28;102161.47;6335147;22;45369;-94
2022/05/26 13:03:30;;;;;;;;;2.00;2.00;;;;;33.01;66.92;102132.50;6334350;22;45258;-93
2022/05/26 13:06:01;;;;;;;;;46.50;39.00;;;;;33.76;65.26;102157.50;6339311;22;45371;-91
2022/05/26 13:08:30;;;;;;;;;2.67;2.67;;;;;34.25;63.46;102171.47;6334275;22;45350;-93
2022/05/26 13:10:57;;;;;;;;;2.67;2.67;;;;;35.87;64.68;102177.56;6340407;22;45328;-91
2022/05/26 13:13:27;;;;;;;;;10.33;10.33;;;;;37.97;64.02;102186.72;6344589;22;45272;-93
2022/05/26 13:15:52;;;;;;;;;1.00;0.00;;;;;39.46;62.33;102191.97;6340565;22;45290;-93
2022/05/26 13:18:24;;;;;;;;;1.33;1.00;;;;;40.24;60.87;102208.66;6353737;22;45416;-93
2022/05/26 13:23:30;;;;;;;;;1.33;1.33;;;;;38.46;56.56;102201.69;6375135;22;45477;-94
2022/05/26 13:25:57;;;;;;;;;18.67;17.67;;;;;37.13;57.71;102189.66;6370196;22;45317;-95
2022/05/26 13:28:29;;;;;;;;;1.00;1.00;;;;;36.13;58.18;102196.59;6366270;22;45513;-94
2022/05/26 13:33:49;;;;;;;;;1.33;1.00;;;;;36.91;58.78;102200.66;6369334;22;45299;-94
2022/05/26 13:36:34;;;;;;;;;2.00;2.00;;;;;36.49;59.12;102189.69;6371885;22;45294;-94
2022/05/26 13:39:05;;;;;;;;;6.67;6.00;;;;;37.04;60.90;102185.50;6368722;22;45275;-92
2022/05/26 13:41:31;;;;;;;;;2.67;2.00;;;;;37.59;60.02;102187.59;6364790;22;46206;-93
2022/05/26 13:44:00;;;;;;;;;1.00;0.00;;;;;37.18;58.99;102189.44;6367687;22;45255;-94
2022/05/26 13:46:31;;;;;;;;;2.00;1.00;;;;;36.38;59.17;102188.28;6367981;22;45526;-93
2022/05/26 13:49:01;;;;;;;;;60.00;47.00;;;;;35.42;59.43;102183.81;6368514;22;45277;-93
2022/05/26 13:51:39;;;;;;;;;11.33;10.00;;;;;34.62;59.27;102180.25;6368787;22;46402;-93
2022/05/26 13:54:17;;;;;;;;;11.67;11.00;;;;;34.15;60.48;102170.91;6367384;22;45274;-93
2022/05/26 13:56:47;;;;;;;;;8.33;8.33;;;;;33.65;61.03;102159.69;6375799;22;45212;-94
2022/05/26 13:59:14;;;;;;;;;1.00;1.00;;;;;33.00;61.03;102153.34;6369729;22;45334;-92
2022/05/26 14:01:50;;;;;;;;;1.33;0.00;;;;;32.40;61.32;102147.63;6374211;22;45455;-93
2022/05/26 14:04:37;;;;;;;;;3.33;2.67;;;;;32.28;62.54;102143.41;6376405;22;45282;-92
2022/05/26 14:07:31;;;;;;;;;0.00;0.00;;;;;32.96;63.26;102140.75;6373581;22;45214;-91
2022/05/26 14:10:14;;;;;;;;;2.00;2.00;;;;;33.66;63.23;102126.97;6375516;22;45343;-93
2022/05/26 14:12:40;;;;;;;;;1.00;1.00;;;;;34.06;63.20;102129.41;6373153;22;46946;-93
2022/05/26 14:15:06;;;;;;;;;0.67;0.00;;;;;34.20;62.29;102128.03;6369465;22;45384;-91
2022/05/26 14:17:36;;;;;;;;;4.00;4.00;;;;;34.76;62.80;102138.88;6366110;22;45276;-93
2022/05/26 14:20:11;;;;;;;;;1.67;1.00;;;;;35.07;61.99;102147.81;6364579;22;45401;-93
2022/05/26 14:22:37;;;;;;;;;3.67;1.00;;;;;35.50;62.26;102131.66;6366330;22;45322;-94
2022/05/26 14:25:03;;;;;;;;;0.00;0.00;;;;;35.36;60.36;102144.94;6385106;22;45357;-92
2022/05/26 14:28:04;;;;;;;;;2.00;0.00;;;;;34.78;61.29;102140.63;6351969;22;45274;-91
2022/05/26 14:30:35;;;;;;;;;0.67;0.67;;;;;34.24;60.72;102137.91;6366672;22;45400;-91
2022/05/26 14:33:22;;;;;;;;;0.00;0.00;;;;;34.23;61.58;102128.81;6364564;22;47286;-93
2022/05/26 14:35:48;;;;;;;;;0.00;0.00;;;;;34.41;61.70;102123.72;6364571;22;45831;-94
2022/05/26 14:38:15;;;;;;;;;1.67;1.67;;;;;34.27;61.44;102121.44;6367363;22;45392;-94
2022/05/26 14:40:41;;;;;;;;;0.00;0.00;;;;;34.83;62.25;102124.09;6364525;22;45473;-92
2022/05/26 14:43:07;;;;;;;;;0.00;0.00;;;;;35.02;61.97;102131.63;6366847;22;46255;-95
2022/05/26 14:45:33;;;;;;;;;0.00;0.00;;;;;34.53;60.53;102141.47;6366394;22;45303;-92
2022/05/26 14:47:59;;;;;;;;;0.00;0.00;;;;;33.86;60.91;102128.19;6366507;22;45480;-90
2022/05/26 14:50:25;;;;;;;;;0.00;0.00;;;;;33.16;61.79;102117.56;6365024;22;45344;-91
2022/05/26 14:52:51;;;;;;;;;1.00;0.00;;;;;32.58;62.66;102116.38;6364581;22;45600;-95
2022/05/26 14:55:27;;;;;;;;;1.67;1.67;;;;;32.10;62.98;102100.38;6369090;22;45331;-92
2022/05/26 14:57:54;;;;;;;;;0.33;0.33;;;;;31.49;63.32;102095.41;6373053;22;45284;-91
2022/05/26 15:00:24;;;;;;;;;0.33;0.33;;;;;30.98;63.62;102100.94;6377462;22;45442;-92
2022/05/26 15:02:50;;;;;;;;;1.00;1.00;;;;;30.67;64.59;102091.56;6376504;22;45366;-93
2022/05/26 15:05:15;;;;;;;;;0.33;0.33;;;;;30.39;65.48;102067.69;6375422;22;45381;-94
2022/05/26 15:07:43;;;;;;;;;4.00;0.67;;;;;30.12;66.22;102057.28;6370097;22;45661;-94
2022/05/26 15:10:11;;;;;;;;;3.33;1.00;;;;;29.94;66.93;102047.66;6366604;22;45245;-93
2022/05/26 15:12:37;;;;;;;;;2.33;2.33;;;;;29.77;67.11;102032.56;6367059;22;45357;-92
2022/05/26 15:15:04;;;;;;;;;1.00;1.00;;;;;29.61;67.31;102029.19;6367603;22;45591;-94
2022/05/26 15:17:30;;;;;;;;;1.00;1.00;;;;;29.37;67.67;102028.63;6365992;22;45355;-89
2022/05/26 15:19:57;;;;;;;;;0.33;0.33;;;;;29.04;67.91;102012.81;6364549;22;45563;-93
2022/05/26 15:22:24;;;;;;;;;0.67;0.33;;;;;28.73;68.96;101992.47;6365474;22;45409;-91
2022/05/26 15:24:50;;;;;;;;;0.00;0.00;;;;;28.54;68.88;101996.25;6365135;22;45335;-92
2022/05/26 15:27:19;;;;;;;;;3.33;2.67;;;;;28.30;69.26;101984.75;6365554;22;45313;-93
2022/05/26 15:29:45;;;;;;;;;0.00;0.00;;;;;28.18;69.70;101961.50;6365432;22;45232;-93
2022/05/26 15:32:24;;;;;;;;;1.00;0.00;;;;;28.06;70.43;101953.53;6367279;22;46010;-93
2022/05/26 15:34:49;;;;;;;;;1.67;1.00;;;;;27.92;70.27;101945.53;6371959;22;45659;-92
2022/05/26 15:37:14;;;;;;;;;1.00;1.00;;;;;27.84;70.42;101953.69;6373876;22;45337;-94
2022/05/26 15:39:40;;;;;;;;;2.00;2.00;;;;;27.77;71.51;101915.06;6365589;22;45239;-91
2022/05/26 15:42:05;;;;;;;;;0.00;0.00;;;;;27.78;71.98;101906.09;6363648;22;62765;-92
2022/05/26 15:44:30;;;;;;;;;1.33;1.33;;;;;27.75;71.68;101919.59;6363341;22;45290;-92
2022/05/26 15:46:56;;;;;;;;;0.00;0.00;;;;;27.59;71.76;101911.63;6364567;22;45328;-93
2022/05/26 15:49:23;;;;;;;;;0.00;0.00;;;;;27.43;72.80;101891.97;6368439;22;57373;-92
2022/05/26 15:51:49;;;;;;;;;1.67;1.00;;;;;27.31;72.90;101885.78;6369976;22;47178;-92
2022/05/26 15:54:22;;;;;;;;;1.00;1.00;;;;;27.25;74.05;101855.25;6369106;22;45247;-92
2022/05/26 15:56:48;;;;;;;;;1.00;0.00;;;;;27.24;73.78;101872.34;6369149;22;45304;-91
2022/05/26 15:59:19;;;;;;;;;0.33;0.33;;;;;27.18;73.53;101875.97;6368982;22;45408;-91
2022/05/26 16:01:44;;;;;;;;;0.00;0.00;;;;;27.04;73.71;101886.78;6366572;22;46100;-94
2022/05/26 16:04:10;;;;;;;;;1.00;0.00;;;;;26.82;74.11;101868.97;6362519;22;45433;-91
2022/05/26 16:06:37;;;;;;;;;4.00;3.00;;;;;26.62;74.70;101837.63;6365402;22;45314;-92
2022/05/26 16:09:03;;;;;;;;;1.00;0.00;;;;;26.46;74.89;101841.31;6363309;22;45595;-91
2022/05/26 16:11:29;;;;;;;;;1.00;0.67;;;;;26.20;75.41;101818.97;6361870;22;47125;-92
2022/05/26 16:13:57;;;;;;;;;0.00;0.00;;;;;25.95;75.76;101813.66;6362192;22;45378;-93
2022/05/26 16:16:22;;;;;;;;;1.00;1.00;;;;;25.70;76.08;101781.38;6362520;22;45526;-92
2022/05/26 16:18:47;;;;;;;;;1.00;1.00;;;;;25.48;76.90;101758.16;6363563;22;45339;-91
2022/05/26 16:21:13;;;;;;;;;1.00;1.00;;;;;25.26;76.99;101735.75;6362412;22;50438;-94
2022/05/26 16:23:48;;;;;;;;;2.67;2.67;;;;;25.02;77.69;101716.97;6363510;22;45599;-92
2022/05/26 16:26:14;;;;;;;;;2.00;2.00;;;;;24.82;78.67;101685.59;6362299;22;45367;-91
2022/05/26 16:28:39;;;;;;;;;1.00;1.00;;;;;24.67;79.38;101665.00;6369419;22;45425;-93
2022/05/26 16:31:05;;;;;;;;;2.00;1.00;;;;;24.51;79.50;101653.34;6368310;22;45894;-92
2022/05/26 16:33:30;;;;;;;;;0.33;0.33;;;;;24.37;79.96;101627.44;6369091;22;45378;-90
2022/05/26 16:38:41;;;;;;;;;1.33;1.00;;;;;24.14;80.45;101596.06;6368081;22;45425;-92
2022/05/26 16:41:08;;;;;;;;;0.33;0.33;;;;;24.04;81.39;101571.03;6374646;22;46382;-92
2022/05/26 16:43:34;;;;;;;;;0.00;0.00;;;;;23.96;81.59;101538.84;6368756;22;45347;-89
2022/05/26 16:45:59;;;;;;;;;2.00;1.33;;;;;23.85;82.71;101509.31;6370775;22;44608;-93
2022/05/26 16:48:26;;;;;;;;;1.67;1.00;;;;;23.75;83.23;101478.94;6370055;22;45316;-92
2022/05/26 16:50:52;;;;;;;;;2.00;2.00;;;;;23.65;83.01;101471.75;6372392;22;45282;-93
2022/05/26 16:53:22;;;;;;;;;4.33;2.67;;;;;23.58;83.67;101451.22;6372291;22;45334;-92
2022/05/26 16:55:47;;;;;;;;;6.00;6.00;;;;;23.51;84.33;101427.06;6373910;22;45453;-93
2022/05/26 17:03:23;;;;;;;;;1.00;1.00;;;;;23.22;84.83;101399.28;6403508;22;45422;-94
2022/05/26 17:05:48;;;;;;;;;1.00;0.67;;;;;23.33;85.56;101403.78;6374401;22;45427;-93
2022/05/26 17:08:17;;;;;;;;;1.00;1.00;;;;;23.21;85.90;101360.03;6403934;22;45275;-93
2022/05/26 17:10:44;;;;;;;;;0.00;0.00;;;;;23.19;85.99;101375.19;6402888;22;45562;-94
2022/05/26 17:21:24;;;;;;;;;2.00;1.00;;;;;23.03;87.64;101331.44;6401750;22;45354;-92
2022/05/26 17:23:55;;;;;;;;;3.00;2.00;;;;;22.96;87.66;101318.94;6374593;22;45554;-94
2022/05/26 17:26:30;;;;;;;;;1.00;1.00;;;;;22.88;88.25;101297.50;6373441;22;45351;-92
2022/05/26 17:28:57;;;;;;;;;1.00;1.00;;;;;22.81;87.96;101303.69;6401897;22;45326;-94
2022/05/26 17:31:22;;;;;;;;;1.00;1.00;;;;;22.73;88.76;101282.28;6400300;22;46518;-95
2022/05/26 17:33:49;;;;;;;;;2.00;1.00;;;;;22.68;88.52;101276.00;6371593;22;45170;-94
2022/05/26 17:36:14;;;;;;;;;1.00;1.00;;;;;22.64;89.68;101257.25;6369446;22;45360;-94
2022/05/26 17:38:42;;;;;;;;;1.67;1.00;;;;;22.64;89.91;101253.69;6372845;22;45393;-95
2022/05/26 17:41:12;;;;;;;;;1.33;1.33;;;;;22.62;91.05;101226.94;6382070;22;47028;-95
2022/05/26 17:43:37;;;;;;;;;1.00;1.00;;;;;22.60;90.21;101222.47;6404239;22;45370;-94
2022/05/26 17:46:03;;;;;;;;;1.67;1.67;;;;;22.55;90.95;101215.31;6409635;22;45237;-94
2022/05/26 17:48:28;;;;;;;;;1.00;1.00;;;;;22.50;90.82;101210.81;6382687;22;45287;-89
2022/05/26 17:50:54;;;;;;;;;1.00;1.00;;;;;22.46;90.86;101201.91;6376916;22;47197;-92
2022/05/26 17:53:23;;;;;;;;;1.00;1.00;;;;;22.42;91.88;101190.31;6373495;22;45425;-91
2022/05/26 17:55:49;;;;;;;;;1.00;1.00;;;;;22.38;92.11;101177.81;6400412;22;45290;-91
2022/05/26 17:58:18;;;;;;;;;2.00;1.00;;;;;22.33;92.32;101171.56;6378492;22;45372;-91
2022/05/26 18:01:04;;;;;;;;;0.33;0.33;;;;;22.25;92.84;101158.19;6406082;22;45421;-90
2022/05/26 18:03:35;;;;;;;;;1.00;1.00;;;;;22.24;93.53;101155.50;6399223;22;45281;-87
2022/05/26 18:06:06;;;;;;;;;2.00;2.00;;;;;22.18;93.93;101135.00;6399067;22;45369;-91
2022/05/26 18:08:33;;;;;;;;;2.00;2.00;;;;;22.12;94.01;101126.94;6399156;22;45679;-89
2022/05/26 18:10:59;;;;;;;;;3.00;3.00;;;;;22.10;94.85;101116.25;6396039;22;45283;-88
2022/05/26 18:13:26;;;;;;;;;2.33;2.33;;;;;22.06;95.42;101088.59;6367241;22;45789;-89
2022/05/26 18:15:52;;;;;;;;;2.33;2.33;;;;;22.01;95.36;101092.19;6397726;22;45404;-88
2022/05/26 18:18:19;;;;;;;;;2.00;2.00;;;;;21.97;95.90;101092.16;6369035;22;45493;-92
2022/05/26 18:20:44;;;;;;;;;2.00;2.00;;;;;21.97;96.53;101077.91;6368503;22;48329;-89
2022/05/26 18:23:19;;;;;;;;;2.00;2.00;;;;;21.93;96.93;101054.75;6393886;22;45429;-88
2022/05/26 18:25:45;;;;;;;;;2.00;1.33;;;;;21.88;97.28;101054.72;6396612;22;45595;-90
2022/05/26 18:28:11;;;;;;;;;1.67;1.67;;;;;21.84;97.58;101052.88;6367106;22;45596;-91
2022/05/26 18:30:36;;;;;;;;;1.00;1.00;;;;;21.79;97.84;101044.88;6368125;22;48254;-91
2022/05/26 18:33:05;;;;;;;;;3.00;3.00;;;;;21.80;97.85;101037.75;6397092;22;45478;-90
2022/05/26 18:35:37;;;;;;;;;2.00;2.00;;;;;21.73;99.23;101024.34;6396611;22;45348;-90